Time;durP1;ratioP1;P1;durP2;ratioP2;P2;SDS_P1;SDS_P2;PMS_P1;PMS_P2;Temp;Humidity;BMP_temperature;BMP_pressure;BME280_temperature;BME280_humidity;BME280_pressure;Samples;Min_cycle;Max_cycle;Signal;HPM_P1;HPM_P2
2023/04/17 00:01:42;;;;;;;;;;;11.50;99.90;;;;;;7333098;19;109686;-66
2023/04/17 00:04:09;;;;;;;;;;;11.50;99.90;;;;;;7332223;19;110091;-70
2023/04/17 00:06:37;;;;;;;;;;;11.50;99.90;;;;;;7334517;19;108839;-66
2023/04/17 00:09:04;;;;;;;;;;;11.50;99.90;;;;;;7339614;19;108640;-66
2023/04/17 00:11:31;;;;;;;;;;;11.50;99.90;;;;;;7333033;19;111157;-66
2023/04/17 00:13:58;;;;;;;;;;;11.50;99.90;;;;;;7332015;19;109427;-67
2023/04/17 00:16:26;;;;;;;;;;;11.50;99.90;;;;;;7330482;19;110339;-66
2023/04/17 00:18:53;;;;;;;;;;;11.40;99.90;;;;;;7333363;19;108733;-66
2023/04/17 00:21:20;;;;;;;;;;;11.40;99.90;;;;;;7329274;19;110304;-66
2023/04/17 00:23:47;;;;;;;;;;;11.40;99.90;;;;;;7333627;19;110657;-67
2023/04/17 00:26:15;;;;;;;;;;;11.30;99.90;;;;;;7333234;19;110211;-66
2023/04/17 00:28:42;;;;;;;;;;;11.40;99.90;;;;;;7337299;19;111759;-66
2023/04/17 00:31:09;;;;;;;;;;;11.40;99.90;;;;;;7331865;19;110182;-66
2023/04/17 00:33:36;;;;;;;;;;;11.40;99.90;;;;;;7332236;19;108371;-66
2023/04/17 00:36:03;;;;;;;;;;;11.40;99.90;;;;;;7331600;19;110548;-66
2023/04/17 00:38:30;;;;;;;;;;;11.30;99.90;;;;;;7332526;19;110288;-66
2023/04/17 00:40:57;;;;;;;;;;;11.40;99.90;;;;;;7333854;19;110089;-66
2023/04/17 00:43:24;;;;;;;;;;;11.40;99.90;;;;;;7330781;19;112060;-65
2023/04/17 00:45:52;;;;;;;;;;;11.40;99.90;;;;;;7332378;19;108889;-67
2023/04/17 00:48:22;;;;;;;;;;;11.40;99.90;;;;;;7334117;19;112912;-65
2023/04/17 00:50:50;;;;;;;;;;;11.40;99.90;;;;;;7338990;19;110157;-65
2023/04/17 00:53:17;;;;;;;;;;;11.30;99.90;;;;;;7336607;19;109298;-67
2023/04/17 00:55:45;;;;;;;;;;;11.40;99.90;;;;;;7340122;19;109202;-68
2023/04/17 00:58:13;;;;;;;;;;;11.40;99.90;;;;;;7338123;19;108587;-68
2023/04/17 01:00:40;;;;;;;;;;;11.40;99.90;;;;;;7340480;19;109319;-67
2023/04/17 01:03:07;;;;;;;;;;;11.30;99.90;;;;;;7337092;19;110983;-65
2023/04/17 01:05:34;;;;;;;;;;;11.30;99.90;;;;;;7340130;19;110322;-65
2023/04/17 01:08:01;;;;;;;;;;;11.30;99.90;;;;;;7340089;19;109501;-65
2023/04/17 01:10:29;;;;;;;;;;;11.30;99.90;;;;;;7337852;19;109423;-67
2023/04/17 01:13:05;;;;;;;;;;;11.30;99.90;;;;;;7341746;19;108797;-68
2023/04/17 01:15:33;;;;;;;;;;;11.30;99.90;;;;;;7339252;19;110094;-66
2023/04/17 01:18:00;;;;;;;;;;;11.30;99.90;;;;;;7339080;19;108983;-66
2023/04/17 01:20:31;;;;;;;;;;;11.30;99.90;;;;;;7335295;19;109376;-67
2023/04/17 01:22:58;;;;;;;;;;;11.30;99.90;;;;;;7332161;19;112286;-66
2023/04/17 01:25:26;;;;;;;;;;;11.20;99.90;;;;;;7338862;19;108980;-66
2023/04/17 01:27:53;;;;;;;;;;;11.20;99.90;;;;;;7335748;19;109430;-67
2023/04/17 01:30:20;;;;;;;;;;;11.20;99.90;;;;;;7340021;19;110399;-66
2023/04/17 01:32:47;;;;;;;;;;;11.20;99.90;;;;;;7333747;19;109023;-66
2023/04/17 01:35:14;;;;;;;;;;;11.20;99.90;;;;;;7343369;19;108790;-66
2023/04/17 01:37:41;;;;;;;;;;;11.20;99.90;;;;;;7338243;19;108635;-67
2023/04/17 01:40:09;;;;;;;;;;;11.20;99.90;;;;;;7338989;19;109294;-66
2023/04/17 01:42:36;;;;;;;;;;;11.10;99.90;;;;;;7336117;19;110300;-67
2023/04/17 01:45:03;;;;;;;;;;;11.10;99.90;;;;;;7338859;19;108319;-66
2023/04/17 01:47:30;;;;;;;;;;;11.10;99.90;;;;;;7337250;19;108661;-66
2023/04/17 01:49:57;;;;;;;;;;;11.10;99.90;;;;;;7336188;19;109667;-66
2023/04/17 01:52:24;;;;;;;;;;;11.20;99.90;;;;;;7339711;19;108346;-66
2023/04/17 01:54:51;;;;;;;;;;;11.10;99.90;;;;;;7336963;19;108969;-66
2023/04/17 01:57:18;;;;;;;;;;;11.10;99.90;;;;;;7344280;19;109696;-66
2023/04/17 01:59:45;;;;;;;;;;;11.10;99.90;;;;;;7337168;19;109090;-66
2023/04/17 02:02:12;;;;;;;;;;;11.00;99.90;;;;;;7336951;19;109238;-66
2023/04/17 02:04:39;;;;;;;;;;;10.90;99.90;;;;;;7334554;19;109638;-66
2023/04/17 02:07:06;;;;;;;;;;;10.90;99.90;;;;;;7338283;19;109468;-66
2023/04/17 02:09:33;;;;;;;;;;;11.00;99.90;;;;;;7335182;19;109277;-66
2023/04/17 02:12:01;;;;;;;;;;;10.90;99.90;;;;;;7338756;19;109933;-66
2023/04/17 02:14:29;;;;;;;;;;;10.90;99.90;;;;;;7335581;19;110200;-66
2023/04/17 02:16:56;;;;;;;;;;;10.80;99.90;;;;;;7335164;19;109128;-67
2023/04/17 02:19:23;;;;;;;;;;;10.80;99.90;;;;;;7342872;19;108800;-66
2023/04/17 02:21:50;;;;;;;;;;;10.80;99.90;;;;;;7334511;19;109617;-67
2023/04/17 02:24:17;;;;;;;;;;;10.80;99.90;;;;;;7337398;19;108468;-66
2023/04/17 02:26:44;;;;;;;;;;;10.70;99.90;;;;;;7334219;19;108278;-67
2023/04/17 02:29:11;;;;;;;;;;;10.70;99.90;;;;;;7337154;19;109962;-66
2023/04/17 02:31:39;;;;;;;;;;;10.70;99.90;;;;;;7335820;19;108687;-66
2023/04/17 02:34:06;;;;;;;;;;;10.80;99.90;;;;;;7331275;19;108647;-66
2023/04/17 02:36:34;;;;;;;;;;;10.80;99.90;;;;;;7337349;19;110357;-66
2023/04/17 02:39:01;;;;;;;;;;;10.90;99.90;;;;;;7336981;19;108457;-67
2023/04/17 02:41:28;;;;;;;;;;;10.80;99.90;;;;;;7334491;19;110909;-67
2023/04/17 02:43:56;;;;;;;;;;;10.90;99.90;;;;;;7336130;19;108818;-66
2023/04/17 02:46:23;;;;;;;;;;;10.80;99.90;;;;;;7336071;19;110627;-67
2023/04/17 02:48:50;;;;;;;;;;;10.80;99.90;;;;;;7334710;19;109124;-74
2023/04/17 02:51:17;;;;;;;;;;;10.80;99.90;;;;;;7334819;19;109503;-73
2023/04/17 02:53:44;;;;;;;;;;;10.80;99.90;;;;;;7332122;19;108819;-73
2023/04/17 02:56:11;;;;;;;;;;;10.80;99.90;;;;;;7336018;19;109564;-73
2023/04/17 02:58:38;;;;;;;;;;;10.60;99.90;;;;;;7331878;19;108811;-72
2023/04/17 03:01:05;;;;;;;;;;;10.60;99.90;;;;;;7342081;19;109599;-73
2023/04/17 03:03:33;;;;;;;;;;;10.60;99.90;;;;;;7335577;19;109829;-73
2023/04/17 03:06:01;;;;;;;;;;;10.70;99.90;;;;;;7333123;19;109164;-73
2023/04/17 03:08:28;;;;;;;;;;;10.70;99.90;;;;;;7337367;19;109412;-74
2023/04/17 03:10:58;;;;;;;;;;;10.70;99.90;;;;;;7331549;19;110946;-73
2023/04/17 03:13:25;;;;;;;;;;;10.70;99.90;;;;;;7336209;19;109313;-74
2023/04/17 03:15:52;;;;;;;;;;;10.70;99.90;;;;;;7330719;19;108942;-76
2023/04/17 03:18:19;;;;;;;;;;;10.70;99.90;;;;;;7335912;19;111072;-73
2023/04/17 03:20:50;;;;;;;;;;;10.70;99.90;;;;;;7330127;19;120788;-78
2023/04/17 03:23:17;;;;;;;;;;;10.70;99.90;;;;;;7340673;19;110633;-76
2023/04/17 03:25:44;;;;;;;;;;;10.60;99.90;;;;;;7332737;19;109349;-78
2023/04/17 03:28:11;;;;;;;;;;;10.60;99.90;;;;;;7334354;19;109936;-78
2023/04/17 03:30:39;;;;;;;;;;;10.70;99.90;;;;;;7334280;19;109020;-73
2023/04/17 03:33:07;;;;;;;;;;;10.70;99.90;;;;;;7331740;19;108951;-76
2023/04/17 03:35:33;;;;;;;;;;;10.80;99.90;;;;;;7332334;19;110713;-78
2023/04/17 03:38:01;;;;;;;;;;;10.70;99.90;;;;;;7334054;19;109114;-77
2023/04/17 03:40:28;;;;;;;;;;;10.80;99.90;;;;;;7334380;19;109885;-77
2023/04/17 03:42:56;;;;;;;;;;;10.80;99.90;;;;;;7330792;19;109122;-77
2023/04/17 03:45:23;;;;;;;;;;;10.80;99.90;;;;;;7336904;19;109847;-78
2023/04/17 03:47:50;;;;;;;;;;;10.80;99.90;;;;;;7332060;19;110652;-77
2023/04/17 03:50:17;;;;;;;;;;;10.80;99.90;;;;;;7333927;19;109563;-77
2023/04/17 03:52:45;;;;;;;;;;;10.80;99.90;;;;;;7332676;19;108607;-77
2023/04/17 03:55:12;;;;;;;;;;;10.70;99.90;;;;;;7332319;19;110401;-77
2023/04/17 03:57:39;;;;;;;;;;;10.70;99.90;;;;;;7329343;19;109911;-80
2023/04/17 04:00:09;;;;;;;;;;;10.70;99.90;;;;;;7334026;19;109548;-77
2023/04/17 04:02:36;;;;;;;;;;;10.70;99.90;;;;;;7333417;19;111441;-77
2023/04/17 04:05:03;;;;;;;;;;;10.70;99.90;;;;;;7332811;19;108438;-75
2023/04/17 04:07:30;;;;;;;;;;;10.60;99.90;;;;;;7336474;19;108935;-74
2023/04/17 04:09:57;;;;;;;;;;;10.60;99.90;;;;;;7328948;19;108840;-73
2023/04/17 04:12:24;;;;;;;;;;;10.60;99.90;;;;;;7331919;19;108954;-75
2023/04/17 04:14:51;;;;;;;;;;;10.70;99.90;;;;;;7331619;19;109760;-73
2023/04/17 04:17:18;;;;;;;;;;;10.70;99.90;;;;;;7334612;19;109729;-73
2023/04/17 04:19:46;;;;;;;;;;;10.60;99.90;;;;;;7333279;19;109100;-74
2023/04/17 04:22:13;;;;;;;;;;;10.60;99.90;;;;;;7332716;19;109756;-73
2023/04/17 04:24:41;;;;;;;;;;;10.60;99.90;;;;;;7331006;19;108920;-72
2023/04/17 04:27:09;;;;;;;;;;;10.50;99.90;;;;;;7336532;19;111167;-73
2023/04/17 04:29:36;;;;;;;;;;;10.50;99.90;;;;;;7342337;19;113273;-73
2023/04/17 04:32:04;;;;;;;;;;;10.60;99.90;;;;;;7338279;19;110436;-73
2023/04/17 04:34:32;;;;;;;;;;;10.60;99.90;;;;;;7338040;19;109782;-73
2023/04/17 04:36:59;;;;;;;;;;;10.60;99.90;;;;;;7340134;19;108476;-73
2023/04/17 04:39:25;;;;;;;;;;;10.60;99.90;;;;;;7337091;19;110876;-73
2023/04/17 04:41:53;;;;;;;;;;;10.50;99.90;;;;;;7339335;19;110192;-73
2023/04/17 04:44:20;;;;;;;;;;;10.50;99.90;;;;;;7339816;19;108730;-74
2023/04/17 04:46:47;;;;;;;;;;;10.50;99.90;;;;;;7339269;19;108860;-73
2023/04/17 04:49:14;;;;;;;;;;;10.40;99.90;;;;;;7343493;19;109573;-75
2023/04/17 04:51:41;;;;;;;;;;;10.40;99.90;;;;;;7338809;19;108801;-80
2023/04/17 04:54:08;;;;;;;;;;;10.40;99.90;;;;;;7339771;19;109311;-78
2023/04/17 04:56:35;;;;;;;;;;;10.30;99.90;;;;;;7337451;19;112590;-78
2023/04/17 04:59:02;;;;;;;;;;;10.20;99.90;;;;;;7339406;19;109573;-73
2023/04/17 05:01:29;;;;;;;;;;;10.30;99.90;;;;;;7337665;19;109140;-73
2023/04/17 05:03:56;;;;;;;;;;;10.30;99.90;;;;;;7338089;19;110128;-73
2023/04/17 05:06:23;;;;;;;;;;;10.30;99.90;;;;;;7337633;19;108609;-72
2023/04/17 05:08:50;;;;;;;;;;;10.30;99.90;;;;;;7337540;19;109357;-73
2023/04/17 05:11:17;;;;;;;;;;;10.50;99.90;;;;;;7344870;19;108721;-72
2023/04/17 05:13:44;;;;;;;;;;;10.50;99.90;;;;;;7338009;19;109094;-73
2023/04/17 05:16:11;;;;;;;;;;;10.40;99.90;;;;;;7337446;19;109562;-73
2023/04/17 05:18:38;;;;;;;;;;;10.30;99.90;;;;;;7335603;19;109528;-73
2023/04/17 05:21:05;;;;;;;;;;;10.40;99.90;;;;;;7337564;19;110074;-74
2023/04/17 05:23:32;;;;;;;;;;;10.40;99.90;;;;;;7337172;19;110226;-73
2023/04/17 05:26:00;;;;;;;;;;;10.40;99.90;;;;;;7336995;19;109370;-73
2023/04/17 05:28:28;;;;;;;;;;;10.40;99.90;;;;;;7338409;19;109123;-73
2023/04/17 05:30:55;;;;;;;;;;;10.30;99.90;;;;;;7337022;19;108703;-73
2023/04/17 05:33:22;;;;;;;;;;;10.30;99.90;;;;;;7344609;19;108511;-73
2023/04/17 05:35:50;;;;;;;;;;;10.40;99.90;;;;;;7337434;19;110006;-72
2023/04/17 05:38:21;;;;;;;;;;;10.30;99.90;;;;;;7336707;19;108738;-72
2023/04/17 05:40:48;;;;;;;;;;;10.40;99.90;;;;;;7334268;19;109963;-73
2023/04/17 05:43:15;;;;;;;;;;;10.40;99.90;;;;;;7340174;19;108839;-72
2023/04/17 05:45:42;;;;;;;;;;;10.40;99.90;;;;;;7338734;19;110387;-72
2023/04/17 05:48:09;;;;;;;;;;;10.50;99.90;;;;;;7337264;19;109915;-74
2023/04/17 05:50:36;;;;;;;;;;;10.40;99.90;;;;;;7336532;19;108773;-73
2023/04/17 05:53:03;;;;;;;;;;;10.40;99.90;;;;;;7337657;19;109680;-71
2023/04/17 05:55:30;;;;;;;;;;;10.40;99.90;;;;;;7343768;19;111603;-72
2023/04/17 05:57:57;;;;;;;;;;;10.40;99.90;;;;;;7337994;19;110034;-72
2023/04/17 06:00:24;;;;;;;;;;;10.30;99.90;;;;;;7338082;19;111752;-72
2023/04/17 06:02:51;;;;;;;;;;;10.40;99.90;;;;;;7334406;19;109331;-72
2023/04/17 06:05:19;;;;;;;;;;;10.30;99.90;;;;;;7335674;19;108425;-61
2023/04/17 06:07:47;;;;;;;;;;;10.40;99.90;;;;;;7335952;19;109176;-61
2023/04/17 06:10:14;;;;;;;;;;;10.50;99.90;;;;;;7336065;19;108808;-61
2023/04/17 06:12:41;;;;;;;;;;;10.50;99.90;;;;;;7337332;19;108811;-61
2023/04/17 06:15:09;;;;;;;;;;;10.50;99.90;;;;;;7337193;19;111457;-61
2023/04/17 06:17:36;;;;;;;;;;;10.50;99.90;;;;;;7341256;19;108730;-62
2023/04/17 06:20:07;;;;;;;;;;;10.60;99.90;;;;;;7340989;19;110332;-61
2023/04/17 06:22:35;;;;;;;;;;;10.60;99.90;;;;;;7336536;19;112039;-61
2023/04/17 06:25:03;;;;;;;;;;;10.60;99.90;;;;;;7339797;19;109319;-61
2023/04/17 06:27:30;;;;;;;;;;;10.70;99.90;;;;;;7335598;19;110436;-61
2023/04/17 06:29:58;;;;;;;;;;;10.60;99.90;;;;;;7338526;19;108959;-61
2023/04/17 06:32:25;;;;;;;;;;;10.60;99.90;;;;;;7335107;19;109703;-61
2023/04/17 06:34:53;;;;;;;;;;;10.60;99.90;;;;;;7336245;19;109705;-62
2023/04/17 06:37:25;;;;;;;;;;;10.50;99.90;;;;;;7336211;19;110191;-62
2023/04/17 06:39:52;;;;;;;;;;;10.40;99.90;;;;;;7342727;19;108623;-61
2023/04/17 06:42:19;;;;;;;;;;;10.40;99.90;;;;;;7338734;19;109898;-61
2023/04/17 06:44:46;;;;;;;;;;;10.40;99.90;;;;;;7335265;19;109448;-62
2023/04/17 06:47:13;;;;;;;;;;;10.30;99.90;;;;;;7335632;19;109970;-62
2023/04/17 06:49:40;;;;;;;;;;;10.30;99.90;;;;;;7333846;19;109916;-62
2023/04/17 06:52:07;;;;;;;;;;;10.40;99.90;;;;;;7338618;19;108735;-61
2023/04/17 06:54:34;;;;;;;;;;;10.40;99.90;;;;;;7337239;19;109274;-62
2023/04/17 06:57:05;;;;;;;;;;;10.40;99.90;;;;;;7337926;19;108991;-62
2023/04/17 06:59:33;;;;;;;;;;;10.40;99.90;;;;;;7341124;19;108808;-62
2023/04/17 07:02:03;;;;;;;;;;;10.50;99.90;;;;;;7336560;19;108884;-62
2023/04/17 07:04:31;;;;;;;;;;;10.60;99.90;;;;;;7334384;19;108649;-62
2023/04/17 07:06:58;;;;;;;;;;;10.50;99.90;;;;;;7336396;19;109094;-62
2023/04/17 07:09:26;;;;;;;;;;;10.50;99.90;;;;;;7337041;19;108790;-61
2023/04/17 07:11:53;;;;;;;;;;;10.50;99.90;;;;;;7335041;19;109906;-62
2023/04/17 07:14:21;;;;;;;;;;;10.50;99.90;;;;;;7336311;19;109225;-62
2023/04/17 07:16:48;;;;;;;;;;;10.40;99.90;;;;;;7332199;19;109962;-61
2023/04/17 07:19:16;;;;;;;;;;;10.40;99.90;;;;;;7337348;19;109313;-62
2023/04/17 07:21:43;;;;;;;;;;;10.40;99.90;;;;;;7339858;19;110033;-62
2023/04/17 07:24:10;;;;;;;;;;;10.40;99.90;;;;;;7336005;19;108696;-61
2023/04/17 07:26:39;;;;;;;;;;;10.60;99.90;;;;;;7335771;19;108880;-62
2023/04/17 07:29:06;;;;;;;;;;;10.50;99.90;;;;;;7334971;19;108345;-62
2023/04/17 07:31:33;;;;;;;;;;;10.50;99.90;;;;;;7336383;19;109588;-62
2023/04/17 07:34:00;;;;;;;;;;;10.40;99.90;;;;;;7334171;19;109070;-62
2023/04/17 07:36:28;;;;;;;;;;;10.40;99.90;;;;;;7334441;19;108880;-62
2023/04/17 07:38:55;;;;;;;;;;;10.40;99.90;;;;;;7333533;19;109721;-60
2023/04/17 07:41:22;;;;;;;;;;;10.30;99.90;;;;;;7335236;19;109353;-62
2023/04/17 07:43:49;;;;;;;;;;;10.30;99.90;;;;;;7343139;19;108540;-62
2023/04/17 07:46:16;;;;;;;;;;;10.40;99.90;;;;;;7332968;19;110785;-62
2023/04/17 07:48:43;;;;;;;;;;;10.50;99.90;;;;;;7336504;19;109511;-62
2023/04/17 07:51:26;;;;;;;;;;;10.50;99.90;;;;;;7336161;19;109199;-62
2023/04/17 07:53:53;;;;;;;;;;;10.60;99.90;;;;;;7335431;19;110136;-62
2023/04/17 07:56:20;;;;;;;;;;;10.60;99.90;;;;;;7333915;19;110655;-62
2023/04/17 07:58:50;;;;;;;;;;;10.60;99.90;;;;;;7335309;19;108731;-62
2023/04/17 08:01:18;;;;;;;;;;;10.50;99.90;;;;;;7339559;19;109001;-62
2023/04/17 08:03:45;;;;;;;;;;;10.50;99.90;;;;;;7341896;19;108428;-62
2023/04/17 08:06:13;;;;;;;;;;;10.50;99.90;;;;;;7350235;19;108560;-61
2023/04/17 08:08:40;;;;;;;;;;;10.50;99.90;;;;;;7339930;19;108532;-62
2023/04/17 08:11:07;;;;;;;;;;;10.40;99.90;;;;;;7343840;19;109448;-62
2023/04/17 08:13:34;;;;;;;;;;;10.50;99.90;;;;;;7339769;19;109151;-62
2023/04/17 08:16:01;;;;;;;;;;;10.60;99.90;;;;;;7341092;19;109078;-62
2023/04/17 08:18:28;;;;;;;;;;;10.60;99.90;;;;;;7339567;19;108973;-62
2023/04/17 08:20:55;;;;;;;;;;;10.60;99.90;;;;;;7341242;19;109127;-62
2023/04/17 08:23:22;;;;;;;;;;;10.60;99.90;;;;;;7340423;19;109718;-62
2023/04/17 08:25:49;;;;;;;;;;;10.50;99.90;;;;;;7339528;19;108664;-62
2023/04/17 08:28:16;;;;;;;;;;;10.50;99.90;;;;;;7346068;19;109586;-62
2023/04/17 08:30:44;;;;;;;;;;;10.60;99.90;;;;;;7339932;19;109246;-62
2023/04/17 08:33:12;;;;;;;;;;;10.60;99.90;;;;;;7341180;19;109098;-62
2023/04/17 08:35:39;;;;;;;;;;;10.60;99.90;;;;;;7339933;19;108731;-62
2023/04/17 08:38:07;;;;;;;;;;;10.70;99.90;;;;;;7342010;19;108672;-62
2023/04/17 08:40:34;;;;;;;;;;;10.80;99.90;;;;;;7339492;19;109295;-62
2023/04/17 08:43:01;;;;;;;;;;;10.90;99.90;;;;;;7341846;19;108931;-62
2023/04/17 08:45:29;;;;;;;;;;;11.00;99.90;;;;;;7343357;19;108964;-62
2023/04/17 08:47:56;;;;;;;;;;;11.00;99.90;;;;;;7340871;19;109751;-63
2023/04/17 08:50:23;;;;;;;;;;;11.00;99.90;;;;;;7344760;19;109956;-62
2023/04/17 08:52:51;;;;;;;;;;;11.00;99.90;;;;;;7340208;19;109561;-62
2023/04/17 08:55:20;;;;;;;;;;;10.90;99.90;;;;;;7340261;19;109898;-62
2023/04/17 08:58:03;;;;;;;;;;;10.90;99.90;;;;;;7340402;19;109231;-64
2023/04/17 09:00:31;;;;;;;;;;;10.90;99.90;;;;;;7340713;19;109552;-63
2023/04/17 09:03:00;;;;;;;;;;;10.90;99.90;;;;;;7341634;19;108901;-62
2023/04/17 09:05:35;;;;;;;;;;;10.80;99.90;;;;;;7339619;19;111344;-62
2023/04/17 09:08:12;;;;;;;;;;;10.90;99.90;;;;;;7341337;19;109060;-65
2023/04/17 09:10:43;;;;;;;;;;;11.00;99.90;;;;;;7346250;19;108688;-62
2023/04/17 09:13:13;;;;;;;;;;;11.00;99.90;;;;;;7338685;19;109223;-71
2023/04/17 09:15:41;;;;;;;;;;;11.10;99.90;;;;;;7340293;19;109883;-74
2023/04/17 09:18:24;;;;;;;;;;;11.10;99.90;;;;;;7342390;19;108576;-73
2023/04/17 09:20:51;;;;;;;;;;;11.20;99.90;;;;;;7339473;19;110528;-63
2023/04/17 09:23:19;;;;;;;;;;;11.20;99.90;;;;;;7338558;19;110002;-62
2023/04/17 09:26:03;;;;;;;;;;;11.20;99.90;;;;;;7336926;19;109396;-63
2023/04/17 09:28:34;;;;;;;;;;;11.20;99.90;;;;;;7338141;19;109668;-64
2023/04/17 09:31:25;;;;;;;;;;;11.30;99.90;;;;;;7341849;19;108191;-62
2023/04/17 09:33:59;;;;;;;;;;;11.40;99.90;;;;;;7341819;19;109021;-65
2023/04/17 09:36:29;;;;;;;;;;;11.50;99.90;;;;;;7341935;19;108401;-62
2023/04/17 09:38:58;;;;;;;;;;;11.50;99.90;;;;;;7338139;19;108721;-62
2023/04/17 09:41:27;;;;;;;;;;;11.50;99.90;;;;;;7333107;19;109223;-62
2023/04/17 09:44:00;;;;;;;;;;;11.50;99.90;;;;;;7338982;19;109054;-62
2023/04/17 09:46:34;;;;;;;;;;;11.60;99.90;;;;;;7338776;19;109144;-62
2023/04/17 09:49:06;;;;;;;;;;;11.80;99.90;;;;;;7338641;19;110784;-62
2023/04/17 09:51:33;;;;;;;;;;;12.00;99.90;;;;;;7337695;19;110465;-62
2023/04/17 09:54:04;;;;;;;;;;;12.20;99.90;;;;;;7337052;19;108552;-62
2023/04/17 09:56:35;;;;;;;;;;;12.20;99.90;;;;;;7343817;19;109189;-62
2023/04/17 09:59:03;;;;;;;;;;;12.10;99.90;;;;;;7338831;19;108951;-62
2023/04/17 10:01:34;;;;;;;;;;;12.00;99.90;;;;;;7338994;19;109061;-63
2023/04/17 10:04:02;;;;;;;;;;;12.00;99.90;;;;;;7337116;19;109025;-63
2023/04/17 10:06:30;;;;;;;;;;;12.10;99.90;;;;;;7338415;19;108745;-63
2023/04/17 10:08:57;;;;;;;;;;;12.10;99.90;;;;;;7335304;19;109544;-63
2023/04/17 10:11:26;;;;;;;;;;;12.20;99.90;;;;;;7338561;19;113691;-63
2023/04/17 10:14:28;;;;;;;;;;;12.30;99.90;;;;;;7336615;19;108913;-64
2023/04/17 10:16:55;;;;;;;;;;;12.30;99.90;;;;;;7331816;19;110940;-63
2023/04/17 10:19:29;;;;;;;;;;;12.40;99.90;;;;;;7338589;19;109512;-63
2023/04/17 10:22:11;;;;;;;;;;;12.60;99.90;;;;;;7334174;19;110065;-63
2023/04/17 10:24:38;;;;;;;;;;;12.90;99.90;;;;;;7333293;19;109096;-62
2023/04/17 10:27:23;;;;;;;;;;;13.00;99.90;;;;;;7334288;19;109688;-62
2023/04/17 10:29:54;;;;;;;;;;;12.90;99.90;;;;;;7332834;19;109253;-62
2023/04/17 10:32:27;;;;;;;;;;;13.00;99.90;;;;;;7332723;19;109350;-61
2023/04/17 10:34:59;;;;;;;;;;;13.10;99.90;;;;;;7334301;19;108649;-62
2023/04/17 10:37:45;;;;;;;;;;;13.10;99.90;;;;;;7331856;19;110046;-63
2023/04/17 10:40:19;;;;;;;;;;;13.20;99.90;;;;;;7332867;19;109302;-64
2023/04/17 10:43:16;;;;;;;;;;;13.20;99.90;;;;;;7336982;19;108531;-70
2023/04/17 10:46:06;;;;;;;;;;;13.20;99.90;;;;;;7332547;19;108725;-66
2023/04/17 10:48:34;;;;;;;;;;;13.10;99.90;;;;;;7331926;19;108809;-67
2023/04/17 10:51:25;;;;;;;;;;;13.20;99.90;;;;;;7333831;19;109921;-67
2023/04/17 10:53:52;;;;;;;;;;;13.30;99.90;;;;;;7337504;19;110352;-67
2023/04/17 10:56:26;;;;;;;;;;;13.50;99.90;;;;;;7336971;19;109794;-67
2023/04/17 10:59:03;;;;;;;;;;;13.70;99.90;;;;;;7335028;19;109624;-64
2023/04/17 11:01:36;;;;;;;;;;;13.80;99.90;;;;;;7337636;19;108667;-65
2023/04/17 11:04:03;;;;;;;;;;;13.90;99.90;;;;;;7339541;19;108623;-65
2023/04/17 11:06:31;;;;;;;;;;;13.90;99.90;;;;;;7336529;19;108588;-66
2023/04/17 11:08:59;;;;;;;;;;;13.90;99.90;;;;;;7334739;19;109911;-65
2023/04/17 11:11:26;;;;;;;;;;;14.00;99.90;;;;;;7335973;19;109305;-65
2023/04/17 11:14:13;;;;;;;;;;;14.10;99.90;;;;;;7335022;19;109109;-65
2023/04/17 11:16:42;;;;;;;;;;;14.10;99.90;;;;;;7334371;19;108564;-66
2023/04/17 11:19:11;;;;;;;;;;;14.30;99.90;;;;;;7334112;19;109942;-66
2023/04/17 11:21:41;;;;;;;;;;;14.40;99.90;;;;;;7336478;19;108302;-66
2023/04/17 11:24:08;;;;;;;;;;;14.40;99.90;;;;;;7336400;19;109169;-66
2023/04/17 11:26:45;;;;;;;;;;;14.30;99.90;;;;;;7340545;19;109722;-66
2023/04/17 11:29:15;;;;;;;;;;;14.10;99.90;;;;;;7335358;19;109602;-66
2023/04/17 11:31:46;;;;;;;;;;;13.90;99.90;;;;;;7335689;19;109731;-66
2023/04/17 11:34:14;;;;;;;;;;;13.90;99.90;;;;;;7335686;19;108909;-66
2023/04/17 11:36:59;;;;;;;;;;;13.90;99.90;;;;;;7334660;19;108288;-66
2023/04/17 11:39:28;;;;;;;;;;;13.90;99.90;;;;;;7336248;19;109136;-66
2023/04/17 11:41:55;;;;;;;;;;;14.10;99.90;;;;;;7336618;19;109011;-66
2023/04/17 11:44:23;;;;;;;;;;;14.20;99.90;;;;;;7337787;19;109054;-71
2023/04/17 11:46:51;;;;;;;;;;;14.30;99.90;;;;;;7334821;19;109555;-66
2023/04/17 11:49:25;;;;;;;;;;;14.20;99.90;;;;;;7338816;19;108543;-66
2023/04/17 11:51:52;;;;;;;;;;;14.20;99.90;;;;;;7335189;19;110762;-66
2023/04/17 11:54:29;;;;;;;;;;;14.20;99.90;;;;;;7336221;19;109404;-66
2023/04/17 11:57:00;;;;;;;;;;;14.20;99.90;;;;;;7334834;19;109122;-66
2023/04/17 11:59:36;;;;;;;;;;;14.50;99.90;;;;;;7334163;19;108812;-65
2023/04/17 12:02:07;;;;;;;;;;;14.70;99.90;;;;;;7337892;19;108893;-66
2023/04/17 12:04:35;;;;;;;;;;;14.80;99.90;;;;;;7336302;19;110417;-66
2023/04/17 12:07:03;;;;;;;;;;;14.90;99.90;;;;;;7334075;19;110196;-66
2023/04/17 12:09:31;;;;;;;;;;;14.90;99.90;;;;;;7335842;19;108515;-66
2023/04/17 12:11:58;;;;;;;;;;;15.20;99.90;;;;;;7338788;19;108902;-66
2023/04/17 12:14:25;;;;;;;;;;;15.30;99.90;;;;;;7335378;19;108391;-65
2023/04/17 12:16:52;;;;;;;;;;;15.20;99.90;;;;;;7333184;19;109375;-66
2023/04/17 12:19:20;;;;;;;;;;;15.30;99.90;;;;;;7334171;19;110218;-66
2023/04/17 12:21:47;;;;;;;;;;;15.30;99.90;;;;;;7335418;19;108563;-66
2023/04/17 12:24:14;;;;;;;;;;;15.10;99.90;;;;;;7331084;19;109154;-66
2023/04/17 12:26:45;;;;;;;;;;;15.00;99.90;;;;;;7331945;19;109299;-66
2023/04/17 12:29:13;;;;;;;;;;;15.00;99.90;;;;;;7333323;19;109825;-66
2023/04/17 12:31:40;;;;;;;;;;;15.00;99.90;;;;;;7333858;19;109072;-66
2023/04/17 12:34:07;;;;;;;;;;;15.00;99.90;;;;;;7336439;19;112828;-66
2023/04/17 12:36:34;;;;;;;;;;;15.00;99.90;;;;;;7332692;19;108640;-66
2023/04/17 12:39:02;;;;;;;;;;;15.00;99.90;;;;;;7333652;19;110292;-67
2023/04/17 12:41:30;;;;;;;;;;;15.20;99.90;;;;;;7333385;19;109279;-66
2023/04/17 12:44:02;;;;;;;;;;;15.20;99.90;;;;;;7331627;19;108410;-65
2023/04/17 12:46:29;;;;;;;;;;;15.00;99.90;;;;;;7334103;19;111245;-65
2023/04/17 12:48:59;;;;;;;;;;;15.00;99.90;;;;;;7337703;19;109079;-65
2023/04/17 12:51:27;;;;;;;;;;;15.00;99.90;;;;;;7340154;19;108811;-65
2023/04/17 12:53:54;;;;;;;;;;;14.90;99.90;;;;;;7339009;19;109387;-65
2023/04/17 12:56:21;;;;;;;;;;;15.00;99.90;;;;;;7345630;19;110056;-65
2023/04/17 12:58:48;;;;;;;;;;;15.10;99.90;;;;;;7339579;19;109262;-65
2023/04/17 13:01:15;;;;;;;;;;;15.20;99.90;;;;;;7340870;19;109301;-66
2023/04/17 13:03:42;;;;;;;;;;;15.30;99.90;;;;;;7339419;19;109120;-66
2023/04/17 13:06:10;;;;;;;;;;;15.20;99.90;;;;;;7339800;19;109414;-66
2023/04/17 13:08:37;;;;;;;;;;;15.30;99.90;;;;;;7338239;19;108522;-66
2023/04/17 13:11:04;;;;;;;;;;;15.30;99.90;;;;;;7341683;19;108691;-66
2023/04/17 13:13:31;;;;;;;;;;;15.30;99.90;;;;;;7339562;19;109323;-66
2023/04/17 13:15:58;;;;;;;;;;;15.40;99.90;;;;;;7344771;19;108544;-69
2023/04/17 13:18:25;;;;;;;;;;;15.50;99.90;;;;;;7340361;19;109147;-66
2023/04/17 13:20:52;;;;;;;;;;;15.60;99.90;;;;;;7339108;19;108895;-66
2023/04/17 13:23:19;;;;;;;;;;;15.70;99.90;;;;;;7341389;19;110369;-66
2023/04/17 13:25:47;;;;;;;;;;;15.70;99.90;;;;;;7337322;19;113162;-66
2023/04/17 13:28:14;;;;;;;;;;;15.90;99.90;;;;;;7341628;19;108995;-66
2023/04/17 13:30:41;;;;;;;;;;;16.00;99.90;;;;;;7339079;19;108267;-66
2023/04/17 13:33:08;;;;;;;;;;;16.30;99.90;;;;;;7339573;19;109563;-67
2023/04/17 13:35:35;;;;;;;;;;;16.50;99.90;;;;;;7336821;19;108472;-66
2023/04/17 13:38:02;;;;;;;;;;;16.50;99.90;;;;;;7346811;19;110050;-66
2023/04/17 13:40:30;;;;;;;;;;;16.70;99.90;;;;;;7339202;19;109806;-71
2023/04/17 13:42:57;;;;;;;;;;;16.80;99.90;;;;;;7337357;19;108489;-66
2023/04/17 13:45:24;;;;;;;;;;;16.90;99.90;;;;;;7338292;19;109720;-66
2023/04/17 13:47:52;;;;;;;;;;;16.90;99.90;;;;;;7337215;19;109975;-66
2023/04/17 13:50:19;;;;;;;;;;;16.80;99.90;;;;;;7340428;19;110438;-66
2023/04/17 13:52:46;;;;;;;;;;;16.70;99.90;;;;;;7337928;19;110072;-66
2023/04/17 13:55:14;;;;;;;;;;;16.80;99.90;;;;;;7336146;19;108858;-66
2023/04/17 13:57:41;;;;;;;;;;;16.80;99.90;;;;;;7337962;19;109126;-66
2023/04/17 14:00:09;;;;;;;;;;;17.00;99.90;;;;;;7343760;19;109097;-68
2023/04/17 14:02:36;;;;;;;;;;;17.10;99.90;;;;;;7335520;19;108659;-68
2023/04/17 14:05:04;;;;;;;;;;;17.30;99.90;;;;;;7339250;19;110068;-67
2023/04/17 14:07:37;;;;;;;;;;;17.40;99.90;;;;;;7338502;19;109037;-67
2023/04/17 14:10:04;;;;;;;;;;;17.60;99.90;;;;;;7337994;19;109071;-67
2023/04/17 14:12:31;;;;;;;;;;;17.80;99.90;;;;;;7337183;19;109617;-74